createdAt,value
2022-11-15T00:01:19.047Z,29.00
2022-11-15T00:04:24.633Z,31.07
2022-11-15T00:07:53.926Z,27.30
2022-11-15T00:10:56.983Z,27.33
2022-11-15T00:14:04.301Z,25.90
2022-11-15T00:17:10.349Z,28.90
2022-11-15T00:20:16.074Z,30.47
2022-11-15T00:23:22.129Z,30.10
2022-11-15T00:26:27.968Z,27.27
2022-11-15T00:29:35.217Z,26.70
2022-11-15T00:32:41.363Z,26.77
2022-11-15T00:35:47.350Z,26.67
2022-11-15T00:38:53.358Z,25.43
2022-11-15T00:41:59.314Z,26.33
2022-11-15T00:45:09.116Z,24.83
2022-11-15T00:48:14.849Z,24.80
2022-11-15T00:51:20.858Z,25.33
2022-11-15T00:54:26.804Z,23.57
2022-11-15T00:57:32.586Z,27.83
2022-11-15T01:00:39.487Z,25.00
2022-11-15T01:03:45.250Z,24.33
2022-11-15T01:06:51.074Z,27.40
2022-11-15T01:09:57.429Z,26.80
2022-11-15T01:13:03.448Z,29.23
2022-11-15T01:16:13.841Z,28.30
2022-11-15T01:19:19.855Z,31.60
2022-11-15T01:22:25.703Z,30.47
2022-11-15T01:25:31.671Z,31.43
2022-11-15T01:28:39.622Z,29.93
2022-11-15T01:31:46.853Z,29.13
2022-11-15T01:34:53.203Z,30.37
2022-11-15T01:37:58.905Z,27.90
2022-11-15T01:41:04.828Z,26.13
2022-11-15T01:44:43.074Z,31.20
2022-11-15T01:47:54.312Z,29.33
2022-11-15T01:51:01.845Z,28.30
2022-11-15T01:54:12.035Z,26.50
2022-11-15T01:57:18.310Z,28.13
2022-11-15T02:00:24.449Z,27.70
2022-11-15T02:03:38.776Z,26.50
2022-11-15T02:06:46.219Z,27.27
2022-11-15T02:09:53.761Z,28.10
2022-11-15T02:13:01.743Z,31.10
2022-11-15T02:16:15.700Z,26.10
2022-11-15T02:19:42.457Z,27.93
2022-11-15T02:23:02.926Z,26.63
2022-11-15T02:26:41.800Z,27.33
2022-11-15T02:30:06.209Z,23.73
2022-11-15T02:33:27.617Z,24.40
2022-11-15T02:36:43.054Z,27.60
2022-11-15T02:39:53.602Z,27.67
2022-11-15T02:43:26.680Z,25.83
2022-11-15T02:47:07.064Z,25.97
2022-11-15T02:50:17.786Z,25.50
2022-11-15T02:53:26.694Z,33.07
2022-11-15T02:56:33.093Z,28.60
2022-11-15T03:00:10.807Z,26.63
2022-11-15T03:03:32.139Z,28.67
2022-11-15T03:06:46.819Z,22.90
2022-11-15T03:09:57.065Z,24.87
2022-11-15T03:13:13.414Z,25.97
2022-11-15T03:16:25.430Z,26.53
2022-11-15T03:19:35.287Z,27.10
2022-11-15T03:22:46.235Z,26.07
2022-11-15T03:25:53.784Z,27.97
2022-11-15T03:29:05.383Z,28.43
2022-11-15T03:32:15.941Z,27.13
2022-11-15T03:35:24.007Z,26.07
2022-11-15T03:38:34.402Z,27.47
2022-11-15T03:41:45.031Z,29.27
2022-11-15T03:44:57.073Z,25.63
2022-11-15T03:48:09.595Z,27.07
2022-11-15T03:51:16.442Z,25.87
2022-11-15T03:54:23.774Z,30.60
2022-11-15T03:57:29.938Z,34.10
2022-11-15T04:00:35.837Z,30.00
2022-11-15T04:03:41.940Z,34.27
2022-11-15T04:06:47.950Z,36.37
2022-11-15T04:10:04.110Z,33.87
2022-11-15T04:13:09.921Z,34.50
2022-11-15T04:16:15.771Z,30.93
2022-11-15T04:19:38.763Z,26.13
2022-11-15T04:23:02.144Z,32.57
2022-11-15T04:26:12.671Z,32.13
2022-11-15T04:29:36.725Z,28.20
2022-11-15T04:32:42.829Z,31.57
2022-11-15T04:36:08.848Z,28.73
2022-11-15T04:39:14.844Z,26.80
2022-11-15T04:42:21.935Z,32.37
2022-11-15T04:45:28.082Z,31.50
2022-11-15T04:48:33.962Z,28.87
2022-11-15T04:51:39.816Z,28.83
2022-11-15T04:54:45.707Z,28.23
2022-11-15T04:58:01.500Z,27.80
2022-11-15T05:01:09.893Z,26.33
2022-11-15T05:04:20.457Z,27.80
2022-11-15T05:07:26.425Z,26.30
2022-11-15T05:10:32.723Z,25.37
2022-11-15T05:13:39.917Z,25.70
2022-11-15T05:16:46.399Z,32.20
2022-11-15T05:19:55.939Z,25.43
2022-11-15T05:23:01.726Z,26.77
2022-11-15T05:26:09.526Z,24.93
2022-11-15T05:29:17.207Z,26.07
2022-11-15T05:32:23.650Z,26.50
2022-11-15T05:35:33.720Z,26.97
2022-11-15T05:38:40.119Z,24.43
2022-11-15T05:41:50.912Z,24.83
2022-11-15T05:45:00.292Z,24.47
2022-11-15T05:48:09.686Z,23.83
2022-11-15T05:51:17.883Z,23.10
2022-11-15T05:54:25.323Z,27.23
2022-11-15T05:57:31.238Z,21.33
2022-11-15T06:00:38.269Z,29.77
2022-11-15T06:03:44.273Z,22.60
2022-11-15T06:06:50.077Z,24.93
2022-11-15T06:09:55.772Z,24.67
2022-11-15T06:13:02.593Z,24.90
2022-11-15T06:16:09.905Z,25.17
2022-11-15T06:19:15.745Z,31.43
2022-11-15T06:22:21.699Z,28.73
2022-11-15T06:25:28.003Z,30.73
2022-11-15T06:28:35.068Z,30.87
2022-11-15T06:31:42.183Z,26.97
2022-11-15T06:34:48.311Z,29.57
2022-11-15T06:37:54.145Z,25.37
2022-11-15T06:41:04.472Z,25.07
2022-11-15T06:44:10.392Z,27.60
2022-11-15T06:47:17.445Z,29.40
2022-11-15T06:50:23.750Z,28.10
2022-11-15T06:53:30.160Z,24.67
2022-11-15T06:56:36.252Z,29.17
2022-11-15T06:59:42.184Z,24.13
2022-11-15T07:02:49.674Z,26.83
2022-11-15T07:05:56.687Z,24.83
2022-11-15T07:09:04.503Z,27.83
2022-11-15T07:12:10.350Z,29.37
2022-11-15T07:15:16.324Z,27.57
2022-11-15T07:18:23.645Z,29.10
2022-11-15T07:21:29.904Z,34.17
2022-11-15T07:24:35.865Z,31.60
2022-11-15T07:27:41.727Z,33.67
2022-11-15T07:30:47.811Z,35.03
2022-11-15T07:33:55.052Z,28.83
2022-11-15T07:37:01.068Z,31.47
2022-11-15T07:40:08.239Z,32.50
2022-11-15T07:43:14.467Z,31.50
2022-11-15T07:46:20.779Z,30.47
2022-11-15T07:49:27.958Z,31.60
2022-11-15T07:52:34.227Z,31.53
2022-11-15T07:55:42.269Z,32.27
2022-11-15T07:58:48.257Z,33.70
2022-11-15T08:01:54.786Z,34.70
2022-11-15T08:05:02.475Z,36.07
2022-11-15T08:08:09.370Z,33.03
2022-11-15T08:11:15.201Z,31.83
2022-11-15T08:14:22.910Z,40.07
2022-11-15T08:17:32.967Z,35.67
2022-11-15T08:20:40.511Z,29.80
2022-11-15T08:29:01.880Z,22.90
2022-11-15T08:32:08.231Z,20.60
2022-11-15T08:35:13.970Z,21.25
2022-11-15T08:38:21.199Z,20.55
2022-11-15T08:41:30.273Z,19.80
2022-11-15T08:44:36.505Z,24.27
2022-11-15T08:47:42.463Z,19.63
2022-11-15T08:50:48.420Z,18.92
2022-11-15T08:53:55.794Z,19.48
2022-11-15T08:57:02.009Z,18.63
2022-11-15T09:00:09.219Z,20.13
2022-11-15T09:03:14.919Z,17.48
2022-11-15T09:06:20.845Z,16.52
2022-11-15T09:09:27.785Z,17.85
2022-11-15T09:12:33.764Z,17.15
2022-11-15T09:15:39.700Z,19.95
2022-11-15T09:18:45.557Z,15.40
2022-11-15T09:21:51.339Z,15.98
2022-11-15T09:24:58.665Z,17.17
2022-11-15T09:28:08.491Z,14.48
2022-11-15T09:31:19.434Z,15.55
2022-11-15T09:34:28.598Z,16.10
2022-11-15T09:37:34.652Z,15.98
2022-11-15T09:40:41.831Z,15.13
2022-11-15T09:43:55.321Z,16.58
2022-11-15T09:47:16.718Z,15.00
2022-11-15T09:50:34.094Z,13.45
2022-11-15T09:53:57.624Z,14.57
2022-11-15T09:56:39.154Z,13.93
2022-11-15T09:59:47.729Z,14.65
2022-11-15T10:02:51.613Z,13.65
2022-11-15T10:05:40.984Z,13.20
2022-11-15T10:08:45.986Z,14.38
2022-11-15T10:11:39.378Z,12.93
2022-11-15T10:14:30.574Z,16.55
2022-11-15T10:17:51.668Z,16.45
2022-11-15T10:20:48.432Z,15.93
2022-11-15T10:23:35.618Z,18.30
2022-11-15T10:26:25.457Z,15.57
2022-11-15T10:29:26.249Z,15.73
2022-11-15T10:32:15.779Z,14.43
2022-11-15T10:35:22.337Z,14.13
2022-11-15T10:38:11.897Z,16.63
2022-11-15T10:41:09.687Z,17.67
2022-11-15T10:44:19.844Z,17.23
2022-11-15T10:47:28.675Z,15.90
2022-11-15T10:50:30.403Z,15.40
2022-11-15T10:53:22.327Z,15.73
2022-11-15T10:56:14.054Z,14.85
2022-11-15T10:59:01.460Z,14.63
2022-11-15T11:01:51.072Z,13.63
2022-11-15T11:04:51.684Z,13.90
2022-11-15T11:07:39.126Z,13.60
2022-11-15T11:10:50.489Z,13.80
2022-11-15T11:13:35.914Z,14.30
2022-11-15T11:16:40.473Z,13.50
2022-11-15T11:20:01.987Z,14.25
2022-11-15T11:23:03.021Z,13.20
2022-11-15T11:26:12.052Z,14.15
2022-11-15T11:29:12.387Z,12.70
2022-11-15T11:32:07.899Z,15.23
2022-11-15T11:35:05.369Z,12.75
2022-11-15T11:43:10.940Z,12.57
2022-11-15T11:46:35.607Z,11.68
2022-11-15T11:49:30.205Z,12.57
2022-11-15T11:52:22.783Z,13.38
2022-11-15T11:55:39.469Z,12.07
2022-11-15T11:58:33.232Z,12.02
2022-11-15T12:01:26.420Z,11.93
2022-11-15T12:04:18.228Z,11.27
2022-11-15T12:07:15.406Z,11.85
2022-11-15T12:10:07.207Z,11.88
2022-11-15T12:13:02.480Z,12.00
2022-11-15T12:15:56.290Z,9.68
2022-11-15T12:18:48.313Z,11.95
2022-11-15T12:21:43.426Z,11.32
2022-11-15T12:24:37.266Z,10.70
2022-11-15T12:27:33.557Z,10.35
2022-11-15T12:30:23.334Z,11.77
2022-11-15T12:33:32.226Z,12.20
2022-11-15T12:36:36.761Z,12.18
2022-11-15T12:40:03.559Z,14.13
2022-11-15T12:43:26.811Z,11.63
2022-11-15T12:46:22.483Z,13.68
2022-11-15T12:49:12.364Z,13.38
2022-11-15T12:52:10.647Z,11.02
2022-11-15T12:55:06.018Z,13.38
2022-11-15T12:57:54.252Z,10.48
2022-11-15T13:00:42.766Z,9.50
2022-11-15T13:03:31.219Z,13.20
2022-11-15T13:06:41.703Z,11.50
2022-11-15T13:10:05.785Z,13.93
2022-11-15T13:12:58.473Z,10.98
2022-11-15T13:15:58.614Z,10.85
2022-11-15T13:18:54.811Z,10.85
2022-11-15T13:22:08.382Z,10.68
2022-11-15T13:24:56.662Z,12.52
2022-11-15T13:27:44.121Z,13.32
2022-11-15T13:30:33.387Z,11.57
2022-11-15T13:33:25.816Z,12.65
2022-11-15T13:36:17.688Z,13.32
2022-11-15T13:39:07.738Z,9.73
2022-11-15T13:41:55.516Z,11.43
2022-11-15T13:44:57.469Z,13.68
2022-11-15T13:47:44.766Z,9.90
2022-11-15T13:50:37.148Z,11.65
2022-11-15T13:53:24.916Z,9.15
2022-11-15T13:56:12.055Z,10.48
2022-11-15T13:58:59.229Z,9.57
2022-11-15T14:01:46.883Z,12.52
2022-11-15T14:04:41.601Z,14.63
2022-11-15T14:07:31.234Z,11.45
2022-11-15T14:10:30.169Z,11.10
2022-11-15T14:13:30.149Z,10.82
2022-11-15T14:16:20.353Z,13.30
2022-11-15T14:19:11.429Z,11.63
2022-11-15T14:22:27.080Z,10.80
2022-11-15T14:25:21.159Z,12.50
2022-11-15T14:28:17.732Z,12.70
2022-11-15T14:31:13.679Z,13.50
2022-11-15T14:34:00.937Z,13.32
2022-11-15T14:36:48.366Z,10.15
2022-11-15T14:39:35.754Z,10.98
2022-11-15T14:42:25.407Z,11.85
2022-11-15T14:45:17.735Z,12.27
2022-11-15T14:48:05.700Z,13.82
2022-11-15T14:50:52.981Z,12.65
2022-11-15T14:53:40.129Z,14.82
2022-11-15T14:56:27.524Z,13.52
2022-11-15T14:59:16.270Z,11.23
2022-11-15T15:02:03.303Z,12.68
2022-11-15T15:04:51.214Z,14.02
2022-11-15T15:07:38.743Z,13.00
2022-11-15T15:10:42.961Z,11.15
2022-11-15T15:13:31.317Z,11.25
2022-11-15T15:16:20.107Z,12.30
2022-11-15T15:19:07.188Z,12.25
2022-11-15T15:21:54.568Z,11.63
2022-11-15T15:24:41.988Z,10.00
2022-11-15T15:27:29.273Z,11.20
2022-11-15T15:30:16.665Z,11.13
2022-11-15T15:33:05.605Z,15.60
2022-11-15T15:35:52.816Z,11.35
2022-11-15T15:38:40.727Z,10.82
2022-11-15T15:41:28.365Z,11.63
2022-11-15T15:44:15.335Z,11.30
2022-11-15T15:47:02.823Z,12.63
2022-11-15T15:49:52.467Z,12.32
2022-11-15T15:52:39.737Z,11.48
2022-11-15T15:55:27.855Z,11.55
2022-11-15T15:58:14.993Z,11.67
2022-11-15T16:01:02.555Z,13.38
2022-11-15T16:03:49.976Z,12.20
2022-11-15T16:06:43.176Z,12.20
2022-11-15T16:09:47.707Z,14.07
2022-11-15T16:12:36.062Z,11.85
2022-11-15T16:15:24.840Z,17.30
2022-11-15T16:18:18.125Z,16.08
2022-11-15T16:21:05.530Z,18.25
2022-11-15T16:23:54.303Z,15.70
2022-11-15T16:26:41.585Z,15.37
2022-11-15T16:29:29.169Z,16.30
2022-11-15T16:32:16.686Z,14.05
2022-11-15T16:35:03.676Z,17.93
2022-11-15T16:37:51.279Z,20.10
2022-11-15T16:40:39.794Z,15.37
2022-11-15T16:43:26.972Z,16.13
2022-11-15T16:46:20.487Z,19.33
2022-11-15T16:49:13.255Z,18.53
2022-11-15T16:52:00.626Z,16.93
2022-11-15T16:54:48.046Z,17.27
2022-11-15T16:57:36.748Z,17.13
2022-11-15T17:00:24.221Z,17.43
2022-11-15T17:03:11.892Z,20.57
2022-11-15T17:06:00.362Z,17.17
2022-11-15T17:08:48.357Z,18.23
2022-11-15T17:11:35.586Z,20.13
2022-11-15T17:14:24.362Z,22.87
2022-11-15T17:17:12.164Z,22.93
2022-11-15T17:19:59.420Z,22.30
2022-11-15T17:22:47.286Z,23.57
2022-11-15T17:25:34.617Z,23.60
2022-11-15T17:28:21.905Z,28.47
2022-11-15T17:31:11.906Z,27.20
2022-11-15T17:33:59.040Z,27.13
2022-11-15T17:36:46.450Z,26.37
2022-11-15T17:39:33.751Z,31.17
2022-11-15T17:42:21.087Z,30.57
2022-11-15T17:45:10.634Z,32.57
2022-11-15T17:47:59.237Z,33.00
2022-11-15T17:50:58.413Z,31.63
2022-11-15T17:53:48.463Z,33.77
2022-11-15T17:56:40.501Z,32.47
2022-11-15T17:59:27.881Z,34.33
2022-11-15T18:02:15.242Z,38.13
2022-11-15T18:05:04.271Z,35.77
2022-11-15T18:07:51.990Z,35.30
2022-11-15T18:10:39.490Z,35.73
2022-11-15T18:13:26.893Z,40.43
2022-11-15T18:16:16.358Z,38.03
2022-11-15T18:19:08.701Z,33.10
2022-11-15T18:21:57.510Z,36.50
2022-11-15T18:24:46.897Z,33.50
2022-11-15T18:27:34.122Z,38.87
2022-11-15T18:30:21.652Z,34.20
2022-11-15T18:33:08.997Z,38.33
2022-11-15T18:36:04.694Z,40.97
2022-11-15T18:38:56.921Z,41.60
2022-11-15T18:41:46.455Z,36.17
2022-11-15T18:44:34.414Z,38.87
2022-11-15T18:47:21.617Z,41.80
2022-11-15T18:50:09.653Z,39.37
2022-11-15T18:52:56.706Z,41.30
2022-11-15T18:55:45.540Z,39.73
2022-11-15T18:58:33.123Z,33.40
2022-11-15T19:01:21.670Z,38.73
2022-11-15T19:04:11.018Z,32.80
2022-11-15T19:06:58.057Z,35.80
2022-11-15T19:09:45.585Z,39.40
2022-11-15T19:12:34.321Z,37.73
2022-11-15T19:15:21.380Z,37.50
2022-11-15T19:18:08.768Z,38.40
2022-11-15T19:20:56.878Z,38.97
2022-11-15T19:23:44.390Z,38.93
2022-11-15T19:26:31.807Z,41.93
2022-11-15T19:29:20.654Z,39.10
2022-11-15T19:32:07.832Z,39.03
2022-11-15T19:34:55.178Z,40.97
2022-11-15T19:37:42.509Z,41.47
2022-11-15T19:40:31.158Z,40.53
2022-11-15T19:43:18.674Z,45.37
2022-11-15T19:46:08.762Z,46.20
2022-11-15T19:48:55.923Z,47.23
2022-11-15T19:51:45.113Z,42.20
2022-11-15T19:54:32.413Z,46.53
2022-11-15T19:57:19.909Z,49.77
2022-11-15T20:00:08.707Z,44.37
2022-11-15T20:02:57.429Z,47.33
2022-11-15T20:05:45.355Z,49.73
2022-11-15T20:08:34.017Z,45.50
2022-11-15T20:11:21.630Z,44.20
2022-11-15T20:14:10.697Z,43.47
2022-11-15T20:16:58.339Z,43.53
2022-11-15T20:19:47.201Z,49.90
2022-11-15T20:22:34.297Z,44.23
2022-11-15T20:25:21.709Z,42.53
2022-11-15T20:28:11.069Z,39.07
2022-11-15T20:30:59.995Z,44.27
2022-11-15T20:33:47.145Z,43.00
2022-11-15T20:36:35.826Z,43.47
2022-11-15T20:39:23.424Z,39.43
2022-11-15T20:42:10.604Z,48.83
2022-11-15T20:44:57.981Z,47.27
2022-11-15T20:47:45.342Z,37.07
2022-11-15T20:50:42.453Z,46.60
2022-11-15T20:53:31.901Z,41.87
2022-11-15T20:56:22.764Z,41.03
2022-11-15T20:59:10.306Z,47.07
2022-11-15T21:01:57.812Z,40.77
2022-11-15T21:04:45.096Z,36.50
2022-11-15T21:07:32.406Z,36.53
2022-11-15T21:10:38.559Z,36.70
2022-11-15T21:13:25.758Z,34.20
2022-11-15T21:16:13.217Z,36.33
2022-11-15T21:19:00.698Z,35.57
2022-11-15T21:21:48.268Z,39.37
2022-11-15T21:24:35.717Z,30.67
2022-11-15T21:27:24.449Z,40.43
2022-11-15T21:30:13.200Z,37.07
2022-11-15T21:33:00.542Z,36.83
2022-11-15T21:35:48.069Z,37.33
2022-11-15T21:38:35.850Z,37.13
2022-11-15T21:41:23.296Z,36.83
2022-11-15T21:44:12.216Z,41.73
2022-11-15T21:47:00.173Z,37.83
2022-11-15T21:49:47.472Z,35.47
2022-11-15T21:52:34.970Z,40.00
2022-11-15T21:55:22.509Z,41.00
2022-11-15T21:58:09.668Z,39.37
2022-11-15T22:01:16.287Z,37.90
2022-11-15T22:04:03.523Z,37.77
2022-11-15T22:06:50.862Z,33.63
2022-11-15T22:09:37.930Z,36.20
2022-11-15T22:12:29.537Z,37.40
2022-11-15T22:15:17.198Z,47.77
2022-11-15T22:18:05.989Z,45.30
2022-11-15T22:20:57.526Z,38.73
2022-11-15T22:23:45.712Z,34.80
2022-11-15T22:26:32.796Z,33.63
2022-11-15T22:29:19.975Z,37.90
2022-11-15T22:32:07.256Z,32.37
2022-11-15T22:34:55.915Z,44.30
2022-11-15T22:37:43.438Z,34.90
2022-11-15T22:40:30.417Z,32.97
2022-11-15T22:43:20.098Z,34.90
2022-11-15T22:46:08.524Z,28.73
2022-11-15T22:48:58.584Z,38.57
2022-11-15T22:51:49.310Z,32.87
2022-11-15T22:54:36.588Z,36.23
2022-11-15T22:57:23.775Z,34.40
2022-11-15T23:00:14.990Z,36.87
2022-11-15T23:03:02.858Z,40.67
2022-11-15T23:05:50.617Z,36.50
2022-11-15T23:08:39.174Z,36.50
2022-11-15T23:11:43.517Z,38.83
2022-11-15T23:14:30.536Z,37.53
2022-11-15T23:17:17.714Z,37.23
2022-11-15T23:20:29.142Z,46.43
2022-11-15T23:23:12.568Z,43.40
2022-11-15T23:26:01.114Z,42.63
2022-11-15T23:28:48.268Z,30.37
2022-11-15T23:32:01.032Z,32.87
2022-11-15T23:34:49.062Z,35.50
2022-11-15T23:37:36.541Z,43.07
2022-11-15T23:40:23.671Z,32.40
2022-11-15T23:43:12.370Z,41.53
2022-11-15T23:46:01.706Z,40.60
2022-11-15T23:48:48.998Z,35.67
2022-11-15T23:51:36.251Z,33.37
2022-11-15T23:54:23.568Z,36.50
2022-11-15T23:57:12.091Z,38.60
